Airport View

Enter AWOS ICAO identifier for current METAR.

ex. KFNL

KIKV 290330Z AUTO 31006KT 10SM BKN060 OVC080 11/08 A3000 RMK AO2

29 Sep 2020 03:33

Frequency: 119.175

Phone: 515-965-5764

Other Area AWOS: KDSM - KAMW - KTNU - KBNW

TAF KDSM 282334Z 2900/2924 32011G17KT P6SM VCSH FEW035 SCT050 OVC080 FM290200 31009KT P6SM SCT060 BKN090 FM291600 27010G16KT P6SM BKN120 FM292200 VRB06KT P6SM SCT200